sensor_id;sensor_type;location;lat;lon;timestamp;temperature;humidity
63771;DHT22;60282;43.862;18.430;2022-09-09T00:01:03;22.70;98.10
63771;DHT22;60282;43.862;18.430;2022-09-09T00:04:00;20.70;98.00
63771;DHT22;60282;43.862;18.430;2022-09-09T00:06:33;22.60;98.70
63771;DHT22;60282;43.862;18.430;2022-09-09T00:09:19;22.40;99.70
63771;DHT22;60282;43.862;18.430;2022-09-09T00:12:18;22.40;99.90
63771;DHT22;60282;43.862;18.430;2022-09-09T00:15:05;21.70;99.60
63771;DHT22;60282;43.862;18.430;2022-09-09T00:17:39;22.80;99.90
63771;DHT22;60282;43.862;18.430;2022-09-09T00:20:26;22.20;99.90
63771;DHT22;60282;43.862;18.430;2022-09-09T00:23:17;22.00;99.90
63771;DHT22;60282;43.862;18.430;2022-09-09T00:29:25;23.40;99.90
63771;DHT22;60282;43.862;18.430;2022-09-09T00:32:16;21.90;99.90
63771;DHT22;60282;43.862;18.430;2022-09-09T00:34:58;21.90;99.90
63771;DHT22;60282;43.862;18.430;2022-09-09T00:37:38;22.20;99.90
63771;DHT22;60282;43.862;18.430;2022-09-09T00:57:33;21.80;99.90
63771;DHT22;60282;43.862;18.430;2022-09-09T01:00:39;22.20;99.90
63771;DHT22;60282;43.862;18.430;2022-09-09T01:03:37;21.70;99.90
63771;DHT22;60282;43.862;18.430;2022-09-09T01:06:16;18.90;99.90
63771;DHT22;60282;43.862;18.430;2022-09-09T01:17:26;21.00;99.90
63771;DHT22;60282;43.862;18.430;2022-09-09T01:20:15;21.10;99.90
63771;DHT22;60282;43.862;18.430;2022-09-09T01:28:16;20.80;99.90
63771;DHT22;60282;43.862;18.430;2022-09-09T01:30:47;20.40;99.90
63771;DHT22;60282;43.862;18.430;2022-09-09T01:33:19;20.60;99.90
63771;DHT22;60282;43.862;18.430;2022-09-09T01:38:42;20.40;99.90
63771;DHT22;60282;43.862;18.430;2022-09-09T01:41:13;20.20;99.90
63771;DHT22;60282;43.862;18.430;2022-09-09T01:43:39;20.30;99.90
63771;DHT22;60282;43.862;18.430;2022-09-09T01:46:13;20.30;99.90
63771;DHT22;60282;43.862;18.430;2022-09-09T01:48:52;20.20;99.90
63771;DHT22;60282;43.862;18.430;2022-09-09T01:51:27;20.00;99.90
63771;DHT22;60282;43.862;18.430;2022-09-09T01:53:53;19.90;99.90
63771;DHT22;60282;43.862;18.430;2022-09-09T02:11:46;19.50;99.90
63771;DHT22;60282;43.862;18.430;2022-09-09T02:14:28;19.60;99.90
63771;DHT22;60282;43.862;18.430;2022-09-09T02:17:03;19.60;99.90
63771;DHT22;60282;43.862;18.430;2022-09-09T02:19:44;19.70;99.90
63771;DHT22;60282;43.862;18.430;2022-09-09T02:22:16;19.70;99.90
63771;DHT22;60282;43.862;18.430;2022-09-09T02:24:45;18.30;99.90
63771;DHT22;60282;43.862;18.430;2022-09-09T02:27:17;19.70;99.90
63771;DHT22;60282;43.862;18.430;2022-09-09T02:29:44;19.80;99.90
63771;DHT22;60282;43.862;18.430;2022-09-09T02:32:48;20.00;99.90
63771;DHT22;60282;43.862;18.430;2022-09-09T02:35:22;20.10;99.90
63771;DHT22;60282;43.862;18.430;2022-09-09T02:37:51;21.10;99.90
63771;DHT22;60282;43.862;18.430;2022-09-09T02:40:34;20.20;99.90
63771;DHT22;60282;43.862;18.430;2022-09-09T02:43:01;20.70;99.90
63771;DHT22;60282;43.862;18.430;2022-09-09T02:45:41;20.20;99.90
63771;DHT22;60282;43.862;18.430;2022-09-09T02:53:50;20.10;99.90
63771;DHT22;60282;43.862;18.430;2022-09-09T02:56:26;19.80;99.90
63771;DHT22;60282;43.862;18.430;2022-09-09T02:58:54;18.30;99.90
63771;DHT22;60282;43.862;18.430;2022-09-09T03:01:20;19.40;99.90
63771;DHT22;60282;43.862;18.430;2022-09-09T03:03:46;19.40;99.90
63771;DHT22;60282;43.862;18.430;2022-09-09T03:06:17;19.50;99.90
63771;DHT22;60282;43.862;18.430;2022-09-09T03:08:43;19.90;99.90
63771;DHT22;60282;43.862;18.430;2022-09-09T03:13:36;20.00;99.90
63771;DHT22;60282;43.862;18.430;2022-09-09T03:16:05;20.50;99.90
63771;DHT22;60282;43.862;18.430;2022-09-09T03:21:54;20.50;99.90
63771;DHT22;60282;43.862;18.430;2022-09-09T03:24:24;19.90;99.90
63771;DHT22;60282;43.862;18.430;2022-09-09T03:26:56;20.50;99.90
63771;DHT22;60282;43.862;18.430;2022-09-09T03:29:22;20.40;99.90
63771;DHT22;60282;43.862;18.430;2022-09-09T03:31:50;20.70;99.90
63771;DHT22;60282;43.862;18.430;2022-09-09T03:34:18;20.70;99.90
63771;DHT22;60282;43.862;18.430;2022-09-09T03:36:49;20.70;99.90
63771;DHT22;60282;43.862;18.430;2022-09-09T03:39:20;20.70;99.90
63771;DHT22;60282;43.862;18.430;2022-09-09T03:41:49;19.40;99.90
63771;DHT22;60282;43.862;18.430;2022-09-09T03:44:15;22.00;99.90
63771;DHT22;60282;43.862;18.430;2022-09-09T03:46:43;18.50;99.90
63771;DHT22;60282;43.862;18.430;2022-09-09T03:49:09;20.60;99.90
63771;DHT22;60282;43.862;18.430;2022-09-09T03:51:35;20.60;99.90
63771;DHT22;60282;43.862;18.430;2022-09-09T03:54:02;20.60;99.90
63771;DHT22;60282;43.862;18.430;2022-09-09T03:56:36;20.60;99.90
63771;DHT22;60282;43.862;18.430;2022-09-09T03:59:09;20.60;99.90
63771;DHT22;60282;43.862;18.430;2022-09-09T04:01:35;20.70;99.90
63771;DHT22;60282;43.862;18.430;2022-09-09T04:04:01;20.70;99.90
63771;DHT22;60282;43.862;18.430;2022-09-09T04:06:28;20.50;99.90
63771;DHT22;60282;43.862;18.430;2022-09-09T04:08:57;19.80;99.90
63771;DHT22;60282;43.862;18.430;2022-09-09T04:11:26;20.10;99.90
63771;DHT22;60282;43.862;18.430;2022-09-09T04:13:53;19.90;99.90
63771;DHT22;60282;43.862;18.430;2022-09-09T04:16:18;20.10;99.90
63771;DHT22;60282;43.862;18.430;2022-09-09T04:18:47;19.60;99.90
63771;DHT22;60282;43.862;18.430;2022-09-09T04:21:13;20.20;99.90
63771;DHT22;60282;43.862;18.430;2022-09-09T04:26:14;19.90;99.90
63771;DHT22;60282;43.862;18.430;2022-09-09T04:28:43;19.80;99.90
63771;DHT22;60282;43.862;18.430;2022-09-09T04:31:35;19.90;99.90
63771;DHT22;60282;43.862;18.430;2022-09-09T04:34:01;20.10;99.90
63771;DHT22;60282;43.862;18.430;2022-09-09T04:36:33;20.20;99.90
63771;DHT22;60282;43.862;18.430;2022-09-09T04:39:03;20.20;99.90
63771;DHT22;60282;43.862;18.430;2022-09-09T04:41:32;20.30;99.90
63771;DHT22;60282;43.862;18.430;2022-09-09T04:43:57;23.70;99.90
63771;DHT22;60282;43.862;18.430;2022-09-09T04:46:24;20.20;99.90
63771;DHT22;60282;43.862;18.430;2022-09-09T04:48:50;20.90;99.90
63771;DHT22;60282;43.862;18.430;2022-09-09T04:51:18;20.50;99.90
63771;DHT22;60282;43.862;18.430;2022-09-09T04:53:44;20.10;99.90
63771;DHT22;60282;43.862;18.430;2022-09-09T04:56:15;20.00;99.90
63771;DHT22;60282;43.862;18.430;2022-09-09T04:58:41;19.70;99.90
63771;DHT22;60282;43.862;18.430;2022-09-09T05:01:11;19.70;99.90
63771;DHT22;60282;43.862;18.430;2022-09-09T05:03:40;19.90;99.90
63771;DHT22;60282;43.862;18.430;2022-09-09T05:06:19;20.00;99.90
63771;DHT22;60282;43.862;18.430;2022-09-09T05:08:45;19.60;99.90
63771;DHT22;60282;43.862;18.430;2022-09-09T05:11:24;19.30;99.90
63771;DHT22;60282;43.862;18.430;2022-09-09T05:13:53;15.10;99.90
63771;DHT22;60282;43.862;18.430;2022-09-09T05:16:23;19.00;99.90
63771;DHT22;60282;43.862;18.430;2022-09-09T05:18:49;21.50;99.90
63771;DHT22;60282;43.862;18.430;2022-09-09T05:21:20;19.40;99.90
63771;DHT22;60282;43.862;18.430;2022-09-09T05:23:48;18.90;99.90
63771;DHT22;60282;43.862;18.430;2022-09-09T05:26:23;19.70;99.90
63771;DHT22;60282;43.862;18.430;2022-09-09T05:28:52;19.70;99.90
63771;DHT22;60282;43.862;18.430;2022-09-09T05:31:19;18.80;99.90
63771;DHT22;60282;43.862;18.430;2022-09-09T05:33:49;19.80;99.90
63771;DHT22;60282;43.862;18.430;2022-09-09T05:36:22;20.00;99.90
63771;DHT22;60282;43.862;18.430;2022-09-09T05:38:56;20.40;99.90
63771;DHT22;60282;43.862;18.430;2022-09-09T05:41:22;20.40;99.90
63771;DHT22;60282;43.862;18.430;2022-09-09T05:43:48;20.40;99.90
63771;DHT22;60282;43.862;18.430;2022-09-09T05:46:19;20.40;99.90
63771;DHT22;60282;43.862;18.430;2022-09-09T05:48:49;20.60;99.90
63771;DHT22;60282;43.862;18.430;2022-09-09T05:51:21;20.60;99.90
63771;DHT22;60282;43.862;18.430;2022-09-09T05:53:48;20.80;99.90
63771;DHT22;60282;43.862;18.430;2022-09-09T05:56:19;20.90;99.90
63771;DHT22;60282;43.862;18.430;2022-09-09T05:58:46;20.60;99.90
63771;DHT22;60282;43.862;18.430;2022-09-09T06:01:31;20.00;99.90
63771;DHT22;60282;43.862;18.430;2022-09-09T06:03:57;20.30;99.90
63771;DHT22;60282;43.862;18.430;2022-09-09T06:06:25;20.30;99.90
63771;DHT22;60282;43.862;18.430;2022-09-09T06:08:54;20.50;99.90
63771;DHT22;60282;43.862;18.430;2022-09-09T06:11:29;20.60;99.90
63771;DHT22;60282;43.862;18.430;2022-09-09T06:13:58;20.60;99.90
63771;DHT22;60282;43.862;18.430;2022-09-09T06:16:29;20.70;99.90
63771;DHT22;60282;43.862;18.430;2022-09-09T06:18:56;20.10;99.90
63771;DHT22;60282;43.862;18.430;2022-09-09T06:21:36;20.30;99.90
63771;DHT22;60282;43.862;18.430;2022-09-09T06:24:06;20.30;99.90
63771;DHT22;60282;43.862;18.430;2022-09-09T06:26:44;20.60;99.90
63771;DHT22;60282;43.862;18.430;2022-09-09T06:29:13;20.60;99.90
63771;DHT22;60282;43.862;18.430;2022-09-09T06:31:39;20.70;99.90
63771;DHT22;60282;43.862;18.430;2022-09-09T06:34:06;21.00;99.90
63771;DHT22;60282;43.862;18.430;2022-09-09T06:36:39;21.00;99.90
63771;DHT22;60282;43.862;18.430;2022-09-09T06:39:08;20.90;99.90
63771;DHT22;60282;43.862;18.430;2022-09-09T06:41:36;20.90;99.90
63771;DHT22;60282;43.862;18.430;2022-09-09T06:44:02;21.10;99.90
63771;DHT22;60282;43.862;18.430;2022-09-09T06:46:32;20.00;99.90
63771;DHT22;60282;43.862;18.430;2022-09-09T06:48:59;21.30;99.90
63771;DHT22;60282;43.862;18.430;2022-09-09T06:51:36;21.10;99.90
63771;DHT22;60282;43.862;18.430;2022-09-09T06:54:08;21.40;99.90
63771;DHT22;60282;43.862;18.430;2022-09-09T06:56:39;21.30;99.90
63771;DHT22;60282;43.862;18.430;2022-09-09T06:59:14;21.40;99.90
63771;DHT22;60282;43.862;18.430;2022-09-09T07:01:42;24.10;99.90
63771;DHT22;60282;43.862;18.430;2022-09-09T07:04:14;21.60;99.90
63771;DHT22;60282;43.862;18.430;2022-09-09T07:06:45;21.70;99.90
63771;DHT22;60282;43.862;18.430;2022-09-09T07:09:14;21.90;99.90
63771;DHT22;60282;43.862;18.430;2022-09-09T07:11:57;21.90;99.90
63771;DHT22;60282;43.862;18.430;2022-09-09T07:14:27;20.00;99.90
63771;DHT22;60282;43.862;18.430;2022-09-09T07:17:02;21.70;99.90
63771;DHT22;60282;43.862;18.430;2022-09-09T07:19:31;21.80;99.90
63771;DHT22;60282;43.862;18.430;2022-09-09T07:21:59;21.80;99.90
63771;DHT22;60282;43.862;18.430;2022-09-09T07:24:26;21.90;99.90
63771;DHT22;60282;43.862;18.430;2022-09-09T07:26:55;21.60;99.90
63771;DHT22;60282;43.862;18.430;2022-09-09T07:29:21;22.10;99.90
63771;DHT22;60282;43.862;18.430;2022-09-09T07:31:47;21.20;99.90
63771;DHT22;60282;43.862;18.430;2022-09-09T07:34:13;22.20;99.90
63771;DHT22;60282;43.862;18.430;2022-09-09T07:36:41;22.20;99.90
63771;DHT22;60282;43.862;18.430;2022-09-09T07:39:10;22.30;99.90
63771;DHT22;60282;43.862;18.430;2022-09-09T07:41:44;19.80;99.90
63771;DHT22;60282;43.862;18.430;2022-09-09T07:44:13;22.30;99.90
63771;DHT22;60282;43.862;18.430;2022-09-09T07:46:42;22.20;99.90
63771;DHT22;60282;43.862;18.430;2022-09-09T07:49:14;22.20;99.90
63771;DHT22;60282;43.862;18.430;2022-09-09T07:51:49;22.10;99.90
63771;DHT22;60282;43.862;18.430;2022-09-09T07:54:17;21.90;99.90
63771;DHT22;60282;43.862;18.430;2022-09-09T07:56:46;21.90;99.90
63771;DHT22;60282;43.862;18.430;2022-09-09T07:59:12;22.00;99.90
63771;DHT22;60282;43.862;18.430;2022-09-09T08:01:43;21.90;99.90
63771;DHT22;60282;43.862;18.430;2022-09-09T08:04:14;21.90;99.90
63771;DHT22;60282;43.862;18.430;2022-09-09T08:06:49;21.90;99.90
63771;DHT22;60282;43.862;18.430;2022-09-09T08:09:18;21.90;99.90
63771;DHT22;60282;43.862;18.430;2022-09-09T08:11:44;21.90;99.90
63771;DHT22;60282;43.862;18.430;2022-09-09T08:14:11;21.80;99.90
63771;DHT22;60282;43.862;18.430;2022-09-09T08:16:47;21.80;99.90
63771;DHT22;60282;43.862;18.430;2022-09-09T08:19:13;21.80;99.90
63771;DHT22;60282;43.862;18.430;2022-09-09T08:21:41;21.90;99.90
63771;DHT22;60282;43.862;18.430;2022-09-09T08:24:10;22.60;99.90
63771;DHT22;60282;43.862;18.430;2022-09-09T08:26:47;22.10;99.90
63771;DHT22;60282;43.862;18.430;2022-09-09T08:31:48;22.10;99.90
63771;DHT22;60282;43.862;18.430;2022-09-09T08:34:17;22.20;99.90
63771;DHT22;60282;43.862;18.430;2022-09-09T08:36:46;22.40;99.90
63771;DHT22;60282;43.862;18.430;2022-09-09T08:39:22;22.50;99.90
63771;DHT22;60282;43.862;18.430;2022-09-09T08:50:42;23.00;99.90
63771;DHT22;60282;43.862;18.430;2022-09-09T08:58:31;23.30;99.90
63771;DHT22;60282;43.862;18.430;2022-09-09T09:01:19;23.30;99.90
63771;DHT22;60282;43.862;18.430;2022-09-09T09:12:22;23.20;99.90
63771;DHT22;60282;43.862;18.430;2022-09-09T09:14:54;23.40;99.90
63771;DHT22;60282;43.862;18.430;2022-09-09T09:17:24;23.60;99.90
63771;DHT22;60282;43.862;18.430;2022-09-09T09:19:53;23.80;99.90
63771;DHT22;60282;43.862;18.430;2022-09-09T09:22:24;23.80;99.90
63771;DHT22;60282;43.862;18.430;2022-09-09T09:25:21;24.50;99.90
63771;DHT22;60282;43.862;18.430;2022-09-09T09:30:20;24.60;99.90
63771;DHT22;60282;43.862;18.430;2022-09-09T09:35:53;24.90;99.90
63771;DHT22;60282;43.862;18.430;2022-09-09T09:38:29;25.10;99.90
63771;DHT22;60282;43.862;18.430;2022-09-09T09:40:58;25.30;99.90
63771;DHT22;60282;43.862;18.430;2022-09-09T09:43:32;25.30;99.90
63771;DHT22;60282;43.862;18.430;2022-09-09T09:46:27;25.30;99.90
63771;DHT22;60282;43.862;18.430;2022-09-09T09:49:02;25.20;99.90
63771;DHT22;60282;43.862;18.430;2022-09-09T09:51:34;22.80;99.90
63771;DHT22;60282;43.862;18.430;2022-09-09T09:56:47;23.40;99.90
63771;DHT22;60282;43.862;18.430;2022-09-09T10:04:40;24.60;99.90
63771;DHT22;60282;43.862;18.430;2022-09-09T10:07:20;24.60;99.90
63771;DHT22;60282;43.862;18.430;2022-09-09T10:09:56;24.60;99.90
63771;DHT22;60282;43.862;18.430;2022-09-09T10:18:32;24.80;99.90
63771;DHT22;60282;43.862;18.430;2022-09-09T10:38:20;25.90;99.90
63771;DHT22;60282;43.862;18.430;2022-09-09T10:43:46;25.80;99.90
63771;DHT22;60282;43.862;18.430;2022-09-09T10:46:48;26.00;99.90
63771;DHT22;60282;43.862;18.430;2022-09-09T10:55:51;26.60;99.90
63771;DHT22;60282;43.862;18.430;2022-09-09T10:58:23;26.60;99.90
63771;DHT22;60282;43.862;18.430;2022-09-09T11:00:56;26.70;99.90
63771;DHT22;60282;43.862;18.430;2022-09-09T11:03:28;26.80;99.90
63771;DHT22;60282;43.862;18.430;2022-09-09T11:06:19;27.00;99.60
63771;DHT22;60282;43.862;18.430;2022-09-09T11:08:49;23.80;99.30
63771;DHT22;60282;43.862;18.430;2022-09-09T11:11:25;27.40;99.50
63771;DHT22;60282;43.862;18.430;2022-09-09T11:19:45;28.10;98.00
63771;DHT22;60282;43.862;18.430;2022-09-09T11:22:32;28.40;98.00
63771;DHT22;60282;43.862;18.430;2022-09-09T11:25:28;28.70;97.00
63771;DHT22;60282;43.862;18.430;2022-09-09T11:34:13;29.10;95.60
63771;DHT22;60282;43.862;18.430;2022-09-09T11:42:27;28.50;96.10
63771;DHT22;60282;43.862;18.430;2022-09-09T11:44:55;28.60;96.30
63771;DHT22;60282;43.862;18.430;2022-09-09T11:47:26;28.70;96.70
63771;DHT22;60282;43.862;18.430;2022-09-09T11:52:48;28.90;95.10
63771;DHT22;60282;43.862;18.430;2022-09-09T11:55:28;29.20;95.10
63771;DHT22;60282;43.862;18.430;2022-09-09T11:58:16;28.90;95.40
63771;DHT22;60282;43.862;18.430;2022-09-09T12:00:49;29.10;94.60
63771;DHT22;60282;43.862;18.430;2022-09-09T12:08:51;30.70;95.00
63771;DHT22;60282;43.862;18.430;2022-09-09T12:11:30;29.20;94.80
63771;DHT22;60282;43.862;18.430;2022-09-09T12:14:18;29.50;93.30
63771;DHT22;60282;43.862;18.430;2022-09-09T12:16:49;29.40;93.80
63771;DHT22;60282;43.862;18.430;2022-09-09T12:19:31;29.60;95.00
63771;DHT22;60282;43.862;18.430;2022-09-09T12:28:15;29.70;92.50
63771;DHT22;60282;43.862;18.430;2022-09-09T12:31:14;29.40;92.90
63771;DHT22;60282;43.862;18.430;2022-09-09T12:33:48;30.20;92.00
63771;DHT22;60282;43.862;18.430;2022-09-09T12:36:30;30.30;92.80
63771;DHT22;60282;43.862;18.430;2022-09-09T12:39:15;30.50;91.50
63771;DHT22;60282;43.862;18.430;2022-09-09T12:41:53;30.70;91.10
63771;DHT22;60282;43.862;18.430;2022-09-09T12:44:24;30.70;92.00
63771;DHT22;60282;43.862;18.430;2022-09-09T12:46:51;31.00;91.50
63771;DHT22;60282;43.862;18.430;2022-09-09T12:49:28;30.80;92.30
63771;DHT22;60282;43.862;18.430;2022-09-09T12:52:14;31.00;91.10
63771;DHT22;60282;43.862;18.430;2022-09-09T12:54:45;31.70;89.70
63771;DHT22;60282;43.862;18.430;2022-09-09T12:57:12;31.40;89.00
63771;DHT22;60282;43.862;18.430;2022-09-09T12:59:41;29.70;89.80
63771;DHT22;60282;43.862;18.430;2022-09-09T13:02:22;30.80;90.50
63771;DHT22;60282;43.862;18.430;2022-09-09T13:04:48;31.80;90.90
63771;DHT22;60282;43.862;18.430;2022-09-09T13:07:18;31.20;91.60
63771;DHT22;60282;43.862;18.430;2022-09-09T13:10:03;31.50;90.60
63771;DHT22;60282;43.862;18.430;2022-09-09T13:12:29;30.00;87.90
63771;DHT22;60282;43.862;18.430;2022-09-09T13:14:58;31.80;90.50
63771;DHT22;60282;43.862;18.430;2022-09-09T13:17:27;32.00;89.70
63771;DHT22;60282;43.862;18.430;2022-09-09T13:19:58;31.30;89.60
63771;DHT22;60282;43.862;18.430;2022-09-09T13:22:37;32.10;90.30
63771;DHT22;60282;43.862;18.430;2022-09-09T13:31:01;31.70;88.30
63771;DHT22;60282;43.862;18.430;2022-09-09T13:33:37;31.60;89.80
63771;DHT22;60282;43.862;18.430;2022-09-09T13:36:11;31.10;88.60
63771;DHT22;60282;43.862;18.430;2022-09-09T13:38:55;30.20;89.00
63771;DHT22;60282;43.862;18.430;2022-09-09T13:41:35;30.30;90.00
63771;DHT22;60282;43.862;18.430;2022-09-09T13:44:05;29.80;90.30
63771;DHT22;60282;43.862;18.430;2022-09-09T13:49:39;28.70;90.50
63771;DHT22;60282;43.862;18.430;2022-09-09T13:52:25;28.90;92.40
63771;DHT22;60282;43.862;18.430;2022-09-09T13:55:01;28.70;90.00
63771;DHT22;60282;43.862;18.430;2022-09-09T14:00:14;28.50;90.70
63771;DHT22;60282;43.862;18.430;2022-09-09T14:02:49;28.90;91.30
63771;DHT22;60282;43.862;18.430;2022-09-09T14:05:20;28.80;91.10
63771;DHT22;60282;43.862;18.430;2022-09-09T14:07:48;28.00;90.60
63771;DHT22;60282;43.862;18.430;2022-09-09T14:10:17;28.40;90.00
63771;DHT22;60282;43.862;18.430;2022-09-09T14:12:53;28.40;89.20
63771;DHT22;60282;43.862;18.430;2022-09-09T14:15:33;29.30;88.20
63771;DHT22;60282;43.862;18.430;2022-09-09T14:18:09;30.00;85.80
63771;DHT22;60282;43.862;18.430;2022-09-09T14:20:38;30.10;86.20
63771;DHT22;60282;43.862;18.430;2022-09-09T14:23:13;30.20;86.50
63771;DHT22;60282;43.862;18.430;2022-09-09T14:25:45;30.20;85.80
63771;DHT22;60282;43.862;18.430;2022-09-09T14:28:15;29.60;87.30
63771;DHT22;60282;43.862;18.430;2022-09-09T14:30:51;29.80;87.70
63771;DHT22;60282;43.862;18.430;2022-09-09T14:33:17;28.70;89.20
63771;DHT22;60282;43.862;18.430;2022-09-09T14:35:43;28.70;90.30
63771;DHT22;60282;43.862;18.430;2022-09-09T14:40:37;27.50;90.70
63771;DHT22;60282;43.862;18.430;2022-09-09T14:43:04;27.40;91.00
63771;DHT22;60282;43.862;18.430;2022-09-09T14:45:35;27.20;91.60
63771;DHT22;60282;43.862;18.430;2022-09-09T14:48:03;23.90;91.20
63771;DHT22;60282;43.862;18.430;2022-09-09T14:50:32;27.20;93.20
63771;DHT22;60282;43.862;18.430;2022-09-09T14:58:00;28.00;91.70
63771;DHT22;60282;43.862;18.430;2022-09-09T15:00:25;28.50;92.00
63771;DHT22;60282;43.862;18.430;2022-09-09T15:02:55;28.90;91.00
63771;DHT22;60282;43.862;18.430;2022-09-09T15:05:24;29.40;90.30
63771;DHT22;60282;43.862;18.430;2022-09-09T15:07:59;30.00;90.00
63771;DHT22;60282;43.862;18.430;2022-09-09T15:10:30;27.50;84.10
63771;DHT22;60282;43.862;18.430;2022-09-09T15:12:59;31.60;85.20
63771;DHT22;60282;43.862;18.430;2022-09-09T15:15:24;30.80;84.30
63771;DHT22;60282;43.862;18.430;2022-09-09T15:17:54;30.10;86.60
63771;DHT22;60282;43.862;18.430;2022-09-09T15:20:23;29.70;87.00
63771;DHT22;60282;43.862;18.430;2022-09-09T15:22:54;29.90;87.00
63771;DHT22;60282;43.862;18.430;2022-09-09T15:25:21;28.40;88.90
63771;DHT22;60282;43.862;18.430;2022-09-09T15:27:56;27.90;90.80
63771;DHT22;60282;43.862;18.430;2022-09-09T15:30:25;27.60;91.30
63771;DHT22;60282;43.862;18.430;2022-09-09T15:32:52;27.40;92.10
63771;DHT22;60282;43.862;18.430;2022-09-09T15:35:29;27.40;92.70
63771;DHT22;60282;43.862;18.430;2022-09-09T15:38:02;27.20;92.00
63771;DHT22;60282;43.862;18.430;2022-09-09T15:40:27;23.90;91.30
63771;DHT22;60282;43.862;18.430;2022-09-09T15:47:47;26.10;93.50
63771;DHT22;60282;43.862;18.430;2022-09-09T15:52:46;26.00;93.50
63771;DHT22;60282;43.862;18.430;2022-09-09T15:55:14;26.20;94.10
63771;DHT22;60282;43.862;18.430;2022-09-09T15:57:40;25.70;94.90
63771;DHT22;60282;43.862;18.430;2022-09-09T16:00:07;25.60;94.80
63771;DHT22;60282;43.862;18.430;2022-09-09T16:02:33;25.80;94.40
63771;DHT22;60282;43.862;18.430;2022-09-09T16:04:59;25.90;95.20
63771;DHT22;60282;43.862;18.430;2022-09-09T16:07:27;26.10;94.30
63771;DHT22;60282;43.862;18.430;2022-09-09T16:10:02;26.30;95.30
63771;DHT22;60282;43.862;18.430;2022-09-09T16:12:36;26.40;93.70
63771;DHT22;60282;43.862;18.430;2022-09-09T16:15:05;26.30;95.70
63771;DHT22;60282;43.862;18.430;2022-09-09T16:17:37;26.20;94.30
63771;DHT22;60282;43.862;18.430;2022-09-09T16:20:07;26.00;94.00
63771;DHT22;60282;43.862;18.430;2022-09-09T16:22:34;25.40;94.90
63771;DHT22;60282;43.862;18.430;2022-09-09T16:25:00;25.40;95.70
63771;DHT22;60282;43.862;18.430;2022-09-09T16:27:26;25.30;96.00
63771;DHT22;60282;43.862;18.430;2022-09-09T16:29:52;25.30;96.60
63771;DHT22;60282;43.862;18.430;2022-09-09T16:32:19;25.20;96.40
63771;DHT22;60282;43.862;18.430;2022-09-09T16:34:45;25.20;96.60
63771;DHT22;60282;43.862;18.430;2022-09-09T16:37:11;25.00;97.60
63771;DHT22;60282;43.862;18.430;2022-09-09T16:39:37;25.00;97.40
63771;DHT22;60282;43.862;18.430;2022-09-09T16:42:04;24.90;98.00
63771;DHT22;60282;43.862;18.430;2022-09-09T16:47:23;24.60;98.30
63771;DHT22;60282;43.862;18.430;2022-09-09T16:52:17;24.50;98.10
63771;DHT22;60282;43.862;18.430;2022-09-09T16:57:19;24.40;98.00
63771;DHT22;60282;43.862;18.430;2022-09-09T16:59:59;23.50;99.60
63771;DHT22;60282;43.862;18.430;2022-09-09T17:02:32;24.20;98.10
63771;DHT22;60282;43.862;18.430;2022-09-09T17:05:07;24.10;97.60
63771;DHT22;60282;43.862;18.430;2022-09-09T17:07:37;24.10;98.60
63771;DHT22;60282;43.862;18.430;2022-09-09T17:10:18;24.00;98.10
63771;DHT22;60282;43.862;18.430;2022-09-09T17:12:48;23.80;98.80
63771;DHT22;60282;43.862;18.430;2022-09-09T17:17:49;24.30;99.30
63771;DHT22;60282;43.862;18.430;2022-09-09T17:20:21;24.00;99.80
63771;DHT22;60282;43.862;18.430;2022-09-09T17:22:53;23.60;99.90
63771;DHT22;60282;43.862;18.430;2022-09-09T17:25:29;23.50;99.90
63771;DHT22;60282;43.862;18.430;2022-09-09T17:27:55;23.40;99.90
63771;DHT22;60282;43.862;18.430;2022-09-09T17:30:33;23.50;99.90
63771;DHT22;60282;43.862;18.430;2022-09-09T17:33:06;24.60;99.90
63771;DHT22;60282;43.862;18.430;2022-09-09T17:38:22;23.50;99.90
63771;DHT22;60282;43.862;18.430;2022-09-09T17:45:50;23.80;99.90
63771;DHT22;60282;43.862;18.430;2022-09-09T17:48:24;23.50;99.90
63771;DHT22;60282;43.862;18.430;2022-09-09T17:50:58;25.40;99.90
63771;DHT22;60282;43.862;18.430;2022-09-09T17:53:29;23.40;99.90
63771;DHT22;60282;43.862;18.430;2022-09-09T17:56:02;23.40;99.90
63771;DHT22;60282;43.862;18.430;2022-09-09T18:01:12;23.30;99.90
63771;DHT22;60282;43.862;18.430;2022-09-09T18:03:40;22.00;99.90
63771;DHT22;60282;43.862;18.430;2022-09-09T18:06:19;23.20;99.90
63771;DHT22;60282;43.862;18.430;2022-09-09T18:08:54;23.10;99.90
63771;DHT22;60282;43.862;18.430;2022-09-09T18:11:22;23.20;99.90
63771;DHT22;60282;43.862;18.430;2022-09-09T18:13:56;23.10;99.90
63771;DHT22;60282;43.862;18.430;2022-09-09T18:16:30;23.00;99.90
63771;DHT22;60282;43.862;18.430;2022-09-09T18:19:06;23.00;99.90
63771;DHT22;60282;43.862;18.430;2022-09-09T18:24:43;20.80;99.90
63771;DHT22;60282;43.862;18.430;2022-09-09T18:27:14;21.10;99.90
63771;DHT22;60282;43.862;18.430;2022-09-09T18:29:47;22.80;99.90
63771;DHT22;60282;43.862;18.430;2022-09-09T18:32:15;23.70;99.90
63771;DHT22;60282;43.862;18.430;2022-09-09T18:34:44;19.90;99.90
63771;DHT22;60282;43.862;18.430;2022-09-09T18:37:13;22.30;99.90
63771;DHT22;60282;43.862;18.430;2022-09-09T18:39:39;22.70;99.90
63771;DHT22;60282;43.862;18.430;2022-09-09T18:42:10;22.50;99.90
63771;DHT22;60282;43.862;18.430;2022-09-09T18:44:38;20.00;99.90
63771;DHT22;60282;43.862;18.430;2022-09-09T18:47:07;22.50;99.90
63771;DHT22;60282;43.862;18.430;2022-09-09T18:52:00;22.60;99.90
63771;DHT22;60282;43.862;18.430;2022-09-09T18:54:29;22.40;99.90
63771;DHT22;60282;43.862;18.430;2022-09-09T18:59:32;22.30;99.90
63771;DHT22;60282;43.862;18.430;2022-09-09T19:01:58;21.90;99.90
63771;DHT22;60282;43.862;18.430;2022-09-09T19:06:51;22.00;99.90
63771;DHT22;60282;43.862;18.430;2022-09-09T19:09:25;21.90;99.90
63771;DHT22;60282;43.862;18.430;2022-09-09T19:11:57;21.80;99.90
63771;DHT22;60282;43.862;18.430;2022-09-09T19:14:28;21.70;99.90
63771;DHT22;60282;43.862;18.430;2022-09-09T19:17:08;21.60;99.90
63771;DHT22;60282;43.862;18.430;2022-09-09T19:19:36;21.60;99.90
63771;DHT22;60282;43.862;18.430;2022-09-09T19:22:05;21.50;99.90
63771;DHT22;60282;43.862;18.430;2022-09-09T19:24:35;21.70;99.90
63771;DHT22;60282;43.862;18.430;2022-09-09T19:27:06;21.60;99.90
63771;DHT22;60282;43.862;18.430;2022-09-09T19:29:34;20.40;99.90
63771;DHT22;60282;43.862;18.430;2022-09-09T19:32:03;17.70;99.90
63771;DHT22;60282;43.862;18.430;2022-09-09T19:34:35;21.60;99.90